Time;durP1;ratioP1;P1;durP2;ratioP2;P2;SDS_P1;SDS_P2;PMS_P1;PMS_P2;Temp;Humidity;BMP_temperature;BMP_pressure;BME280_temperature;BME280_humidity;BME280_pressure;Samples;Min_cycle;Max_cycle;Signal;HPM_P1;HPM_P2
2023/10/14 00:01:28;;;;;;;20.67;8.20;;;14.70;99.90;;;;;;4947523;28;20050;-84
2023/10/14 00:03:56;;;;;;;21.13;7.88;;;14.60;99.90;;;;;;4947085;28;20058;-83
2023/10/14 00:06:25;;;;;;;18.60;8.70;;;14.60;99.90;;;;;;4981111;28;20419;-85
2023/10/14 00:08:57;;;;;;;19.52;8.25;;;14.60;99.90;;;;;;4948447;28;20694;-84
2023/10/14 00:11:32;;;;;;;20.90;8.63;;;14.60;99.90;;;;;;4968327;28;20050;-84
2023/10/14 00:14:00;;;;;;;21.17;8.90;;;14.60;99.90;;;;;;4965155;28;20491;-84
2023/10/14 00:18:59;;;;;;;14.18;7.43;;;14.50;99.90;;;;;;4969726;28;20062;-84
2023/10/14 00:21:27;;;;;;;16.73;8.65;;;14.50;99.90;;;;;;4947224;28;20054;-85
2023/10/14 00:24:03;;;;;;;19.00;7.82;;;14.50;99.90;;;;;;4952194;28;20129;-83
2023/10/14 00:26:31;;;;;;;20.05;8.50;;;14.50;99.90;;;;;;4979006;28;20046;-83
2023/10/14 00:31:52;;;;;;;24.50;9.60;;;14.40;99.90;;;;;;4974721;28;20665;-84
2023/10/14 00:34:23;;;;;;;22.02;9.48;;;14.40;99.90;;;;;;4973944;28;20042;-84
2023/10/14 00:36:53;;;;;;;38.25;9.23;;;14.40;99.90;;;;;;4992927;28;20153;-84
2023/10/14 00:39:26;;;;;;;15.10;7.15;;;14.40;99.90;;;;;;4963199;28;20038;-84
2023/10/14 00:41:55;;;;;;;15.88;6.78;;;14.30;99.90;;;;;;4968699;28;20630;-84
2023/10/14 00:44:26;;;;;;;16.42;7.70;;;14.30;99.90;;;;;;4961045;28;20054;-84
2023/10/14 00:46:55;;;;;;;15.02;7.32;;;14.30;99.90;;;;;;4947863;28;20061;-84
2023/10/14 00:49:31;;;;;;;21.75;8.73;;;14.30;99.90;;;;;;4978801;28;20310;-84
2023/10/14 00:52:06;;;;;;;19.25;7.47;;;14.30;99.90;;;;;;4951099;28;20056;-83
2023/10/14 00:54:58;;;;;;;14.75;7.13;;;14.30;99.90;;;;;;4950753;28;20051;-83
2023/10/14 00:57:27;;;;;;;19.48;8.15;;;14.20;99.90;;;;;;4980421;28;20058;-84
2023/10/14 00:59:55;;;;;;;15.68;6.85;;;14.20;99.90;;;;;;4942458;28;20491;-84
2023/10/14 01:02:33;;;;;;;15.75;6.88;;;14.10;99.90;;;;;;4947592;28;20054;-83
2023/10/14 01:05:13;;;;;;;19.58;8.10;;;14.10;99.90;;;;;;4969244;28;20093;-83
2023/10/14 01:07:40;;;;;;;17.88;7.95;;;14.10;99.90;;;;;;4941601;28;20047;-84
2023/10/14 01:10:12;;;;;;;17.08;7.97;;;14.10;99.90;;;;;;4969575;28;20158;-84
2023/10/14 01:12:53;;;;;;;20.58;8.00;;;14.10;99.90;;;;;;4972795;28;20054;-84
2023/10/14 01:15:21;;;;;;;15.50;7.93;;;14.10;99.90;;;;;;4965364;28;20046;-85
2023/10/14 01:17:54;;;;;;;18.13;8.13;;;14.10;99.90;;;;;;4952192;28;20094;-84
2023/10/14 01:22:57;;;;;;;18.98;8.50;;;14.10;99.90;;;;;;4983444;28;20058;-84
2023/10/14 01:25:30;;;;;;;20.90;8.60;;;14.00;99.90;;;;;;4967317;28;20061;-85
2023/10/14 01:27:59;;;;;;;16.20;8.15;;;14.00;99.90;;;;;;4984131;28;20054;-84
2023/10/14 01:30:33;;;;;;;17.27;8.40;;;14.00;99.90;;;;;;4955954;28;20057;-85
2023/10/14 01:35:42;;;;;;;19.38;8.43;;;14.00;99.90;;;;;;4964900;28;22327;-84
2023/10/14 01:38:09;;;;;;;19.33;8.25;;;14.00;99.90;;;;;;4967904;28;20707;-81
2023/10/14 01:40:40;;;;;;;16.67;8.25;;;14.00;99.90;;;;;;4961857;28;20081;-84
2023/10/14 01:43:08;;;;;;;17.92;7.53;;;14.00;99.90;;;;;;4959805;28;20055;-85
2023/10/14 01:45:40;;;;;;;16.45;7.78;;;14.00;99.90;;;;;;4963226;28;20157;-84
2023/10/14 01:50:44;;;;;;;21.90;9.52;;;14.00;99.90;;;;;;4988642;28;20319;-84
2023/10/14 01:53:21;;;;;;;20.00;8.32;;;13.90;99.90;;;;;;4968401;28;20802;-84
2023/10/14 01:55:50;;;;;;;19.92;8.07;;;14.00;99.90;;;;;;4954127;28;20057;-84
2023/10/14 01:58:23;;;;;;;20.02;8.32;;;13.90;99.90;;;;;;4964426;28;20046;-84
2023/10/14 02:00:56;;;;;;;15.93;8.55;;;13.90;99.90;;;;;;4963791;28;20175;-84
2023/10/14 02:03:24;;;;;;;17.17;8.45;;;13.90;99.90;;;;;;4986239;28;20935;-84
2023/10/14 02:05:51;;;;;;;20.15;8.30;;;13.90;99.90;;;;;;4979770;28;20057;-83
2023/10/14 02:08:22;;;;;;;18.90;8.35;;;13.90;99.90;;;;;;4953803;28;20050;-83
2023/10/14 02:10:50;;;;;;;19.50;8.07;;;13.90;99.90;;;;;;4976944;28;20541;-85
2023/10/14 02:13:19;;;;;;;18.13;8.43;;;13.80;99.90;;;;;;4985214;28;20049;-84
2023/10/14 02:15:48;;;;;;;16.98;7.82;;;13.90;99.90;;;;;;4969909;28;20055;-84
2023/10/14 02:18:21;;;;;;;17.90;9.18;;;13.80;99.90;;;;;;4955426;28;20042;-85
2023/10/14 02:21:05;;;;;;;16.80;7.35;;;13.90;99.90;;;;;;4963612;28;20515;-84
2023/10/14 02:23:49;;;;;;;19.10;8.27;;;13.80;99.90;;;;;;4987346;28;20578;-83
2023/10/14 02:26:28;;;;;;;19.77;8.80;;;13.90;99.90;;;;;;4990418;28;20051;-84
2023/10/14 02:28:57;;;;;;;23.30;8.65;;;13.90;99.90;;;;;;4968163;28;20054;-85
2023/10/14 02:31:35;;;;;;;20.98;8.98;;;13.90;99.90;;;;;;4976886;28;20069;-82
2023/10/14 02:34:07;;;;;;;23.10;9.50;;;13.90;99.90;;;;;;4980486;28;20163;-83
2023/10/14 02:36:49;;;;;;;18.50;8.35;;;13.90;99.90;;;;;;4946378;28;20085;-84
2023/10/14 02:39:25;;;;;;;20.47;9.73;;;13.90;99.90;;;;;;4945589;28;20143;-82
2023/10/14 02:44:32;;;;;;;19.38;8.23;;;13.90;99.90;;;;;;4954751;28;20059;-85
2023/10/14 02:47:08;;;;;;;18.63;8.60;;;13.90;99.90;;;;;;4962710;28;20051;-85
2023/10/14 02:49:40;;;;;;;17.60;8.20;;;13.80;99.90;;;;;;4980177;28;20054;-84
2023/10/14 02:52:12;;;;;;;16.48;8.75;;;13.80;99.90;;;;;;4974032;28;20061;-85
2023/10/14 02:54:44;;;;;;;;;;;13.90;99.90;;;;;;4954029;28;20042;-85
2023/10/14 02:57:13;;;;;;;18.90;10.07;;;13.90;99.90;;;;;;4971945;28;19930;-84
2023/10/14 03:02:15;;;;;;;18.15;8.27;;;13.80;99.90;;;;;;4963580;28;20109;-84
2023/10/14 03:04:55;;;;;;;19.65;10.15;;;13.80;99.90;;;;;;4971951;28;20132;-85
2023/10/14 03:07:28;;;;;;;20.52;9.57;;;13.80;99.90;;;;;;4951427;28;20788;-84
2023/10/14 03:10:10;;;;;;;21.05;8.98;;;13.70;99.90;;;;;;4966715;28;20038;-85
2023/10/14 03:12:39;;;;;;;21.27;8.45;;;13.70;99.90;;;;;;4979619;28;20057;-85
2023/10/14 03:15:20;;;;;;;21.50;10.13;;;13.80;99.90;;;;;;4974380;28;20276;-84
2023/10/14 03:18:07;;;;;;;22.20;8.98;;;13.70;99.90;;;;;;4974008;28;20054;-85
2023/10/14 03:20:39;;;;;;;22.45;10.40;;;13.70;99.90;;;;;;4977108;28;20061;-85
2023/10/14 03:23:19;;;;;;;24.53;10.90;;;13.70;99.90;;;;;;4967759;28;20078;-84
2023/10/14 03:25:49;;;;;;;18.42;9.70;;;13.70;99.90;;;;;;4953479;28;20054;-84
2023/10/14 03:28:27;;;;;;;20.60;9.75;;;13.70;99.90;;;;;;4970166;28;20050;-84
2023/10/14 03:30:55;;;;;;;20.80;9.05;;;13.70;99.90;;;;;;4968295;28;20054;-84
2023/10/14 03:33:27;;;;;;;18.75;9.27;;;13.70;99.90;;;;;;4950105;28;20061;-84
2023/10/14 03:35:57;;;;;;;20.73;9.95;;;13.70;99.90;;;;;;4955652;28;20170;-84
2023/10/14 03:41:19;;;;;;;20.95;10.50;;;13.70;99.90;;;;;;4971641;28;20081;-84
2023/10/14 03:43:58;;;;;;;18.15;9.20;;;13.70;99.90;;;;;;4971043;28;20050;-85
2023/10/14 03:46:35;;;;;;;17.90;8.82;;;13.70;99.90;;;;;;4988375;28;20402;-85
2023/10/14 03:49:11;;;;;;;20.05;9.35;;;13.70;99.90;;;;;;4972932;28;20132;-84
2023/10/14 03:51:39;;;;;;;22.08;8.48;;;13.70;99.90;;;;;;4976863;28;20826;-83
2023/10/14 03:54:08;;;;;;;23.30;10.07;;;13.70;99.90;;;;;;4970737;28;20058;-82
2023/10/14 03:56:38;;;;;;;22.15;9.68;;;13.60;99.90;;;;;;4952989;28;20081;-85
2023/10/14 03:59:12;;;;;;;21.85;9.48;;;13.70;99.90;;;;;;4951802;28;20054;-84
2023/10/14 04:09:37;;;;;;;26.33;10.60;;;13.60;99.90;;;;;;4987034;28;20049;-85
2023/10/14 04:12:09;;;;;;;22.70;10.35;;;13.60;99.90;;;;;;4955026;28;20081;-83
2023/10/14 04:14:37;;;;;;;18.92;9.20;;;13.60;99.90;;;;;;4967620;28;20137;-84
2023/10/14 04:17:40;;;;;;;19.35;10.00;;;13.60;99.90;;;;;;4951656;28;20050;-84
2023/10/14 04:25:19;;;;;;;16.92;9.05;;;13.60;99.90;;;;;;4972333;28;20149;-85
2023/10/14 04:30:54;;;;;;;;;;;13.50;99.90;;;;;;4977072;28;20056;-85
2023/10/14 04:38:42;;;;;;;21.80;9.77;;;13.40;99.90;;;;;;4964882;28;20479;-83
2023/10/14 04:41:14;;;;;;;20.50;9.65;;;13.40;99.90;;;;;;4969713;28;20054;-86
2023/10/14 04:46:22;;;;;;;18.70;9.00;;;13.40;99.90;;;;;;4979240;28;20061;-84
2023/10/14 04:48:59;;;;;;;21.63;9.98;;;13.40;99.90;;;;;;4955061;28;20512;-85
2023/10/14 04:51:45;;;;;;;21.88;8.85;;;13.40;99.90;;;;;;4962837;28;20046;-85
2023/10/14 04:54:20;;;;;;;20.23;9.55;;;13.40;99.90;;;;;;4980828;28;20513;-85
2023/10/14 04:56:48;;;;;;;20.33;9.38;;;13.40;99.90;;;;;;4967028;28;20051;-83
2023/10/14 04:59:24;;;;;;;20.35;9.63;;;13.40;99.90;;;;;;4946992;28;22473;-85
2023/10/14 05:01:55;;;;;;;21.63;10.30;;;13.40;99.90;;;;;;4940680;28;20356;-85
2023/10/14 05:04:29;;;;;;;21.25;10.20;;;13.30;99.90;;;;;;4980131;28;20046;-85
2023/10/14 05:07:03;;;;;;;20.60;9.13;;;13.30;99.90;;;;;;4973221;28;20050;-84
2023/10/14 05:09:39;;;;;;;20.52;9.88;;;13.30;99.90;;;;;;4964911;28;20062;-85
2023/10/14 05:12:17;;;;;;;22.25;9.80;;;13.30;99.90;;;;;;4953310;28;20072;-85
2023/10/14 05:14:44;;;;;;;22.38;10.40;;;13.40;99.90;;;;;;4963907;28;20054;-83
2023/10/14 05:19:41;;;;;;;22.90;9.13;;;13.30;99.90;;;;;;4968667;28;20050;-84
2023/10/14 05:22:18;;;;;;;20.55;9.35;;;13.30;99.90;;;;;;4973877;28;20042;-85
2023/10/14 05:24:52;;;;;;;25.85;10.77;;;13.30;99.90;;;;;;4986512;28;20185;-83
2023/10/14 05:27:21;;;;;;;22.98;10.85;;;13.40;99.90;;;;;;4982523;28;20050;-85
2023/10/14 05:29:52;;;;;;;26.73;12.35;;;13.30;99.90;;;;;;4981658;28;22607;-83
2023/10/14 05:32:24;;;;;;;28.58;12.43;;;13.30;99.90;;;;;;4972201;28;20050;-84
2023/10/14 05:34:53;;;;;;;26.30;12.90;;;13.30;99.90;;;;;;4956369;28;20050;-84
2023/10/14 05:37:21;;;;;;;25.15;11.48;;;13.30;99.90;;;;;;4986010;28;20050;-84
2023/10/14 05:39:54;;;;;;;27.65;12.45;;;13.30;99.90;;;;;;4956079;28;20101;-85
2023/10/14 05:42:22;;;;;;;21.88;12.30;;;13.40;99.90;;;;;;4986718;28;20065;-85
2023/10/14 05:45:01;;;;;;;26.33;12.07;;;13.40;99.90;;;;;;4982003;28;20046;-85
2023/10/14 05:47:28;;;;;;;27.75;11.52;;;13.40;99.90;;;;;;4969867;28;20050;-85
2023/10/14 05:49:56;;;;;;;24.00;12.75;;;13.50;99.90;;;;;;4970222;28;20610;-84
2023/10/14 05:52:26;;;;;;;27.63;11.80;;;13.50;99.90;;;;;;4962521;28;21053;-85
2023/10/14 05:54:55;;;;;;;27.55;11.68;;;13.60;99.90;;;;;;4967162;28;20093;-84
2023/10/14 05:57:23;;;;;;;25.08;11.60;;;13.60;99.90;;;;;;4985520;28;20061;-85
2023/10/14 05:59:50;;;;;;;27.83;11.07;;;13.60;99.90;;;;;;4955377;28;20059;-86
2023/10/14 06:02:18;;;;;;;33.08;14.48;;;13.70;99.90;;;;;;4955062;28;20302;-86
2023/10/14 06:04:50;;;;;;;30.55;13.25;;;13.70;99.90;;;;;;4989018;28;20452;-85
2023/10/14 06:07:18;;;;;;;28.13;13.05;;;13.70;99.90;;;;;;4979805;28;20026;-82
2023/10/14 06:09:45;;;;;;;29.05;12.68;;;13.80;99.90;;;;;;4969929;28;20062;-85
2023/10/14 06:12:14;;;;;;;26.85;12.77;;;13.80;99.90;;;;;;4955261;28;20120;-85
2023/10/14 06:14:42;;;;;;;28.58;11.95;;;13.90;99.90;;;;;;4985614;28;20041;-85
2023/10/14 06:17:11;;;;;;;25.55;12.65;;;14.00;99.90;;;;;;4973544;28;20058;-86
2023/10/14 06:19:39;;;;;;;25.48;13.05;;;14.00;99.90;;;;;;4980578;28;20070;-86
2023/10/14 06:22:09;;;;;;;27.55;13.13;;;14.00;99.90;;;;;;4968913;28;20054;-85
2023/10/14 06:24:36;;;;;;;29.83;12.40;;;14.10;99.90;;;;;;4989062;28;20046;-86
2023/10/14 06:27:09;;;;;;;23.38;11.75;;;14.10;99.90;;;;;;4994277;28;20096;-86
2023/10/14 06:29:37;;;;;;;30.63;13.80;;;14.10;99.90;;;;;;4994087;28;20073;-85
2023/10/14 06:32:05;;;;;;;28.08;13.15;;;14.20;99.90;;;;;;4994683;28;20069;-86
2023/10/14 06:34:35;;;;;;;26.50;12.63;;;14.20;99.90;;;;;;4988226;28;20124;-86
2023/10/14 06:37:02;;;;;;;23.77;12.55;;;14.30;99.90;;;;;;4981423;28;20495;-85
2023/10/14 06:39:39;;;;;;;31.55;13.38;;;14.40;99.90;;;;;;4954681;28;20152;-86
2023/10/14 06:42:06;;;;;;;24.77;12.52;;;14.40;99.90;;;;;;4973413;28;20058;-83
2023/10/14 06:44:34;;;;;;;31.63;12.63;;;14.50;99.90;;;;;;4955543;28;20149;-86
2023/10/14 06:47:02;;;;;;;24.33;12.35;;;14.60;99.90;;;;;;4975911;28;20073;-86
2023/10/14 06:49:32;;;;;;;24.40;12.18;;;14.60;99.90;;;;;;4959136;28;20100;-84
2023/10/14 06:52:00;;;;;;;23.00;11.57;;;14.70;99.90;;;;;;4969456;28;20046;-87
2023/10/14 06:54:30;;;;;;;23.00;12.30;;;14.80;99.90;;;;;;4991679;28;20050;-85
2023/10/14 06:57:02;;;;;;;28.65;13.10;;;14.90;99.90;;;;;;4989400;28;20054;-85
2023/10/14 06:59:29;;;;;;;29.65;13.75;;;15.00;99.90;;;;;;4967971;28;20586;-84
2023/10/14 07:01:59;;;;;;;27.55;13.13;;;15.10;99.90;;;;;;4956539;28;20154;-84
2023/10/14 07:04:26;;;;;;;28.67;14.00;;;15.20;99.90;;;;;;4986421;28;20046;-85
2023/10/14 07:06:58;;;;;;;28.70;14.55;;;15.30;99.90;;;;;;4981630;28;22356;-85
2023/10/14 07:09:27;;;;;;;30.48;14.30;;;15.50;99.90;;;;;;4970531;28;20133;-84
2023/10/14 07:11:57;;;;;;;36.25;16.10;;;15.60;99.90;;;;;;4951307;28;20165;-84
2023/10/14 07:14:25;;;;;;;34.05;15.88;;;15.70;99.90;;;;;;4985523;28;20554;-87
2023/10/14 07:16:52;;;;;;;29.83;13.85;;;15.80;99.90;;;;;;4960269;28;20468;-85
2023/10/14 07:19:19;;;;;;;35.42;15.57;;;15.90;99.90;;;;;;4976710;28;20195;-85
2023/10/14 07:21:47;;;;;;;31.05;14.23;;;16.00;99.90;;;;;;4969321;28;20050;-85
2023/10/14 07:24:15;;;;;;;27.10;12.88;;;16.10;99.90;;;;;;4967506;28;20046;-85
2023/10/14 07:26:43;;;;;;;30.35;13.82;;;16.20;99.90;;;;;;4955768;28;20135;-86
2023/10/14 07:29:10;;;;;;;30.83;13.90;;;16.40;99.90;;;;;;4952716;28;20672;-85
2023/10/14 07:31:37;;;;;;;33.03;15.10;;;16.50;99.90;;;;;;4967517;28;20113;-85
2023/10/14 07:34:08;;;;;;;31.25;14.18;;;16.60;99.90;;;;;;4967073;28;20059;-84
2023/10/14 07:36:36;;;;;;;26.35;13.05;;;16.60;99.90;;;;;;4959761;28;20051;-84
2023/10/14 07:39:27;;;;;;;29.98;13.70;;;16.80;99.90;;;;;;4966754;28;20149;-87
2023/10/14 07:41:52;;;;;;;29.83;13.80;;;16.90;99.90;;;;;;4990236;28;20054;-84
2023/10/14 07:44:20;;;;;;;24.10;11.88;;;17.00;99.90;;;;;;4970823;28;20054;-86
2023/10/14 07:46:48;;;;;;;31.77;14.52;;;17.10;99.90;;;;;;4969874;28;20042;-85
2023/10/14 07:49:16;;;;;;;31.25;13.52;;;17.20;99.90;;;;;;4970834;28;20066;-86
2023/10/14 07:51:43;;;;;;;30.05;13.90;;;17.30;99.90;;;;;;4966561;28;20507;-84
2023/10/14 07:54:12;;;;;;;38.80;15.23;;;17.40;99.90;;;;;;4986713;28;20054;-82
2023/10/14 07:56:46;;;;;;;28.77;14.43;;;17.60;99.90;;;;;;4954757;28;20058;-88
2023/10/14 07:59:14;;;;;;;32.88;13.80;;;17.70;99.90;;;;;;4970834;28;22086;-86
2023/10/14 08:01:45;;;;;;;32.80;15.50;;;17.70;99.90;;;;;;4965606;28;20054;-84
2023/10/14 08:04:16;;;;;;;25.52;13.55;;;17.90;99.90;;;;;;4981796;28;20050;-84
2023/10/14 08:06:43;;;;;;;32.88;14.13;;;17.90;99.90;;;;;;4988036;28;20047;-84
2023/10/14 08:09:28;;;;;;;30.20;12.60;;;18.00;99.90;;;;;;4993377;28;20153;-87
2023/10/14 08:11:56;;;;;;;27.00;13.02;;;18.00;99.90;;;;;;4988306;28;20050;-84
2023/10/14 08:14:23;;;;;;;29.52;13.82;;;18.10;99.90;;;;;;4961044;28;20054;-87
2023/10/14 08:16:50;;;;;;;29.40;12.15;;;18.20;99.90;;;;;;4987424;28;20142;-83
2023/10/14 08:19:21;;;;;;;25.88;12.02;;;18.30;99.90;;;;;;4956668;28;20063;-83
2023/10/14 08:21:52;;;;;;;24.08;11.50;;;18.40;99.90;;;;;;4974178;28;22469;-94
2023/10/14 08:24:20;;;;;;;24.02;12.13;;;18.50;99.90;;;;;;4954799;28;20061;-84
2023/10/14 08:26:49;;;;;;;31.98;13.30;;;18.60;99.90;;;;;;4954441;28;20133;-86
2023/10/14 08:29:20;;;;;;;27.70;12.70;;;18.70;99.90;;;;;;4960286;28;20047;-83
2023/10/14 08:31:53;;;;;;;33.55;12.88;;;18.80;99.90;;;;;;4992127;28;20053;-88
2023/10/14 08:34:24;;;;;;;29.33;12.85;;;19.00;99.90;;;;;;4993401;28;22568;-85
2023/10/14 08:36:51;;;;;;;26.00;12.57;;;19.00;99.90;;;;;;4983906;28;20100;-84
2023/10/14 08:39:23;;;;;;;25.75;12.43;;;19.10;99.90;;;;;;4968850;28;20054;-83
2023/10/14 08:41:55;;;;;;;24.33;11.75;;;19.10;99.90;;;;;;4975194;28;20085;-84
2023/10/14 08:44:27;;;;;;;25.98;12.93;;;19.20;99.90;;;;;;4969025;28;20050;-82
2023/10/14 08:46:55;;;;;;;22.42;12.20;;;19.20;99.90;;;;;;4978922;28;22514;-83
2023/10/14 08:49:26;;;;;;;23.85;11.27;;;19.20;99.90;;;;;;4962884;28;20050;-82
2023/10/14 08:51:55;;;;;;;24.20;11.68;;;19.20;99.90;;;;;;4968382;28;20085;-87
2023/10/14 08:54:24;;;;;;;21.65;10.88;;;19.30;99.90;;;;;;4947525;28;20061;-83
2023/10/14 08:56:52;;;;;;;24.08;11.90;;;19.50;99.90;;;;;;4954198;28;20066;-82
2023/10/14 08:59:21;;;;;;;25.10;11.95;;;19.60;99.90;;;;;;4961740;28;20176;-83
2023/10/14 09:01:56;;;;;;;23.67;12.15;;;19.70;99.90;;;;;;4955361;28;20443;-83
2023/10/14 09:04:28;;;;;;;20.92;10.43;;;19.80;99.90;;;;;;4966744;28;20053;-85
2023/10/14 09:07:03;;;;;;;22.20;10.88;;;19.70;99.90;;;;;;4976955;28;20057;-89
2023/10/14 09:09:32;;;;;;;22.40;12.20;;;19.80;99.90;;;;;;4974531;28;20042;-86
2023/10/14 09:12:10;;;;;;;23.67;10.38;;;19.80;99.90;;;;;;4983926;28;20049;-86
2023/10/14 09:14:40;;;;;;;24.33;10.77;;;19.90;99.90;;;;;;4968909;28;20046;-83
2023/10/14 09:17:10;;;;;;;20.05;10.25;;;20.00;99.90;;;;;;4969388;28;20077;-86
2023/10/14 09:19:44;;;;;;;24.30;11.85;;;20.10;99.90;;;;;;4958872;28;20065;-88
2023/10/14 09:22:24;;;;;;;19.50;10.55;;;20.20;99.90;;;;;;4964757;28;20494;-86
2023/10/14 09:24:53;;;;;;;21.92;10.52;;;20.20;99.90;;;;;;4964333;28;20058;-82
2023/10/14 09:27:20;;;;;;;19.52;10.32;;;20.20;99.90;;;;;;4985279;28;20133;-85
2023/10/14 09:29:48;;;;;;;20.45;10.60;;;20.30;99.90;;;;;;4975133;28;20200;-88
2023/10/14 09:32:17;;;;;;;22.55;10.93;;;20.40;99.90;;;;;;4968481;28;20053;-82
2023/10/14 09:34:45;;;;;;;19.55;10.82;;;20.40;99.90;;;;;;4990686;28;20089;-87
2023/10/14 09:37:12;;;;;;;22.35;11.13;;;20.40;99.90;;;;;;4978998;28;20133;-84
2023/10/14 09:39:42;;;;;;;21.58;11.70;;;20.20;99.90;;;;;;4966841;28;20058;-81
2023/10/14 09:42:10;;;;;;;23.67;11.98;;;20.00;99.90;;;;;;4957210;28;20050;-83
2023/10/14 09:44:44;;;;;;;22.40;11.48;;;20.10;99.90;;;;;;4961696;28;20152;-83
2023/10/14 09:47:22;;;;;;;21.83;10.77;;;20.30;99.90;;;;;;4959904;28;20051;-83
2023/10/14 09:49:51;;;;;;;22.45;11.32;;;20.40;99.90;;;;;;4972909;28;20054;-85
2023/10/14 09:52:20;;;;;;;21.83;10.30;;;20.50;99.90;;;;;;4970133;28;20055;-87
2023/10/14 09:54:50;;;;;;;17.27;9.57;;;20.60;99.90;;;;;;4972028;28;20140;-86
2023/10/14 09:57:17;;;;;;;26.10;10.40;;;20.80;99.90;;;;;;4975852;28;20042;-84
2023/10/14 09:59:47;;;;;;;23.00;10.25;;;20.80;99.90;;;;;;4971408;28;20054;-83
2023/10/14 10:02:17;;;;;;;19.65;11.35;;;20.90;99.90;;;;;;4955229;28;20054;-81
2023/10/14 10:04:47;;;;;;;19.65;10.15;;;20.80;99.90;;;;;;4951792;28;20057;-83
2023/10/14 10:07:37;;;;;;;26.60;11.05;;;20.90;99.90;;;;;;4955470;28;20104;-82
2023/10/14 10:10:10;;;;;;;21.80;9.80;;;20.90;99.90;;;;;;4982585;28;22143;-81
2023/10/14 10:12:41;;;;;;;18.95;9.55;;;21.00;99.90;;;;;;4966933;28;20058;-81
2023/10/14 10:15:09;;;;;;;21.02;10.15;;;21.20;99.90;;;;;;4972943;28;20058;-85
2023/10/14 10:17:40;;;;;;;22.95;9.88;;;21.40;98.90;;;;;;4965794;28;20077;-83
2023/10/14 10:20:17;;;;;;;22.42;9.80;;;21.40;98.00;;;;;;4960584;28;20047;-83
2023/10/14 10:22:50;;;;;;;17.90;8.88;;;21.40;98.20;;;;;;4975012;28;20053;-82
2023/10/14 10:25:21;;;;;;;19.67;9.05;;;21.40;97.40;;;;;;4957912;28;20305;-83
2023/10/14 10:28:17;;;;;;;18.17;9.25;;;21.30;97.80;;;;;;4991141;28;20053;-83
2023/10/14 10:31:12;;;;;;;18.27;9.25;;;21.30;97.70;;;;;;4964646;28;20055;-84
2023/10/14 10:34:03;;;;;;;17.15;9.00;;;21.40;97.50;;;;;;4977897;28;20054;-83
2023/10/14 10:36:47;;;;;;;16.70;8.80;;;21.60;97.50;;;;;;4968749;28;20050;-84
2023/10/14 10:39:24;;;;;;;20.52;9.57;;;21.40;95.50;;;;;;4979832;28;20038;-84
2023/10/14 10:42:06;;;;;;;18.10;8.10;;;21.30;96.10;;;;;;4985279;28;20042;-83
2023/10/14 10:44:46;;;;;;;14.65;8.27;;;21.50;96.40;;;;;;4980277;28;20052;-83
2023/10/14 10:47:29;;;;;;;16.58;8.07;;;21.70;96.00;;;;;;4975101;28;20058;-82
2023/10/14 10:50:14;;;;;;;16.42;7.78;;;21.80;95.50;;;;;;4962000;28;20050;-84
2023/10/14 10:53:08;;;;;;;15.90;8.45;;;21.80;95.70;;;;;;4961294;28;20054;-83
2023/10/14 10:55:47;;;;;;;17.30;8.50;;;21.80;96.10;;;;;;4975470;28;20133;-82
2023/10/14 10:58:28;;;;;;;24.70;9.93;;;21.80;96.00;;;;;;4952497;28;20507;-82
2023/10/14 11:01:09;;;;;;;14.75;7.80;;;21.70;95.40;;;;;;4985584;28;20054;-83
2023/10/14 11:03:49;;;;;;;19.88;8.73;;;21.80;94.90;;;;;;4958368;28;20300;-85
2023/10/14 11:06:32;;;;;;;20.83;8.70;;;21.90;94.90;;;;;;4942743;28;20061;-83
2023/10/14 11:09:13;;;;;;;15.43;7.93;;;21.90;94.50;;;;;;4978166;28;20054;-85
2023/10/14 11:12:00;;;;;;;15.82;8.15;;;21.80;95.90;;;;;;4973924;28;22070;-86
2023/10/14 11:14:38;;;;;;;15.15;8.48;;;22.00;94.60;;;;;;4986210;28;20053;-82
2023/10/14 11:17:19;;;;;;;13.65;7.85;;;22.00;94.00;;;;;;4981858;28;20046;-84
2023/10/14 11:20:00;;;;;;;13.38;7.68;;;22.00;94.40;;;;;;4979087;28;20431;-85
2023/10/14 11:22:41;;;;;;;17.45;8.25;;;22.10;94.00;;;;;;4962102;28;20058;-83
2023/10/14 11:25:21;;;;;;;15.13;8.25;;;22.20;93.50;;;;;;4956532;28;20052;-85
2023/10/14 11:28:05;;;;;;;16.80;7.53;;;22.10;93.90;;;;;;4994049;28;20060;-84
2023/10/14 11:30:48;;;;;;;17.38;8.68;;;22.10;93.60;;;;;;4948164;28;22298;-84
2023/10/14 11:33:29;;;;;;;13.38;7.82;;;22.00;93.60;;;;;;4981572;28;20042;-83
2023/10/14 11:36:22;;;;;;;15.85;8.48;;;22.10;93.90;;;;;;4958937;28;20065;-89
2023/10/14 11:39:12;;;;;;;16.63;8.02;;;22.30;92.60;;;;;;4986975;28;22570;-86
2023/10/14 11:41:51;;;;;;;17.15;8.98;;;22.40;92.40;;;;;;4990494;28;22061;-84
2023/10/14 11:44:31;;;;;;;13.07;7.65;;;22.20;92.30;;;;;;4961547;28;20058;-85
2023/10/14 11:47:16;;;;;;;21.58;9.00;;;22.10;93.30;;;;;;4977903;28;20062;-83
2023/10/14 11:49:55;;;;;;;18.05;8.73;;;22.10;92.10;;;;;;4975636;28;20503;-85
2023/10/14 11:52:36;;;;;;;16.33;8.75;;;22.20;92.80;;;;;;4960137;28;22106;-85
2023/10/14 11:55:19;;;;;;;14.30;7.72;;;22.10;92.60;;;;;;4976679;28;20066;-85
2023/10/14 11:57:58;;;;;;;15.00;7.05;;;22.20;93.30;;;;;;4957422;28;20065;-86
2023/10/14 12:00:41;;;;;;;15.52;7.30;;;22.20;92.70;;;;;;4986221;28;20042;-89
2023/10/14 12:03:20;;;;;;;18.38;7.32;;;22.30;92.40;;;;;;4989055;28;20401;-84
2023/10/14 12:06:03;;;;;;;11.80;6.88;;;22.30;91.70;;;;;;4972929;28;20050;-87
2023/10/14 12:08:45;;;;;;;11.80;7.10;;;22.40;91.30;;;;;;4962161;28;20048;-86
2023/10/14 12:11:27;;;;;;;14.02;6.85;;;22.30;91.00;;;;;;4965175;28;20061;-80
2023/10/14 12:14:10;;;;;;;11.18;6.38;;;22.40;91.70;;;;;;4923434;28;22155;-81
2023/10/14 12:16:49;;;;;;;13.43;7.65;;;22.40;91.50;;;;;;4932685;28;20062;-80
2023/10/14 12:19:30;;;;;;;13.40;8.05;;;22.30;91.20;;;;;;4924140;28;22408;-81
2023/10/14 12:22:09;;;;;;;14.63;6.95;;;22.30;91.40;;;;;;4955699;28;20054;-80
2023/10/14 12:24:55;;;;;;;13.25;6.35;;;22.40;91.00;;;;;;4944650;28;20436;-83
2023/10/14 12:27:35;;;;;;;13.07;6.70;;;22.30;91.30;;;;;;4935359;28;20046;-80
2023/10/14 12:33:31;;;;;;;11.90;6.32;;;22.30;91.40;;;;;;4943427;28;20057;-81
2023/10/14 12:36:11;;;;;;;14.38;6.85;;;22.20;91.30;;;;;;4926870;28;20050;-85
2023/10/14 12:38:50;;;;;;;12.07;7.10;;;22.20;92.10;;;;;;4926791;28;20058;-80
2023/10/14 12:41:33;;;;;;;12.57;5.93;;;22.10;91.40;;;;;;4968581;28;20055;-85
2023/10/14 12:44:13;;;;;;;15.57;7.40;;;22.20;91.20;;;;;;4925333;28;20057;-81
2023/10/14 12:46:51;;;;;;;11.88;6.68;;;22.30;91.10;;;;;;4931768;28;20054;-80
2023/10/14 12:49:37;;;;;;;12.68;6.90;;;22.30;91.40;;;;;;4930973;28;20058;-80
2023/10/14 12:52:19;;;;;;;11.05;6.55;;;22.30;91.40;;;;;;4922820;28;20077;-79
2023/10/14 12:54:58;;;;;;;16.38;7.40;;;22.10;91.30;;;;;;4942083;28;20061;-82
2023/10/14 12:57:38;;;;;;;13.55;6.90;;;22.10;91.50;;;;;;4922198;28;20149;-80
2023/10/14 13:00:30;;;;;;;13.40;6.47;;;22.10;91.60;;;;;;4958470;28;20529;-80
2023/10/14 13:03:11;;;;;;;11.18;6.50;;;22.20;90.80;;;;;;4954116;28;20053;-80
2023/10/14 13:05:52;;;;;;;14.15;6.38;;;22.20;91.10;;;;;;4936835;28;22643;-80
2023/10/14 13:08:32;;;;;;;12.07;6.35;;;22.20;90.80;;;;;;4957401;28;20329;-86
2023/10/14 13:11:17;;;;;;;13.10;6.60;;;22.20;90.60;;;;;;4935181;28;20055;-84
2023/10/14 13:13:55;;;;;;;15.73;6.68;;;22.20;90.40;;;;;;4938881;28;20057;-81
2023/10/14 13:16:34;;;;;;;13.60;5.93;;;22.20;91.00;;;;;;4915421;28;20167;-80
2023/10/14 13:19:19;;;;;;;11.75;6.28;;;22.10;91.10;;;;;;4937091;28;22555;-80
2023/10/14 13:22:00;;;;;;;12.55;6.32;;;22.20;91.30;;;;;;4951846;28;20061;-80
2023/10/14 13:24:49;;;;;;;17.40;7.05;;;22.10;91.40;;;;;;4925233;28;21130;-80
2023/10/14 13:27:27;;;;;;;13.02;7.05;;;22.10;91.30;;;;;;4922853;28;20116;-80
2023/10/14 13:30:15;;;;;;;10.43;6.47;;;22.00;91.70;;;;;;4931943;28;20053;-80
2023/10/14 13:32:59;;;;;;;13.63;6.50;;;22.10;91.20;;;;;;4946999;28;20066;-80
2023/10/14 13:35:40;;;;;;;11.65;5.35;;;22.10;91.10;;;;;;4939852;28;20042;-80
2023/10/14 13:38:20;;;;;;;14.40;6.03;;;22.00;91.50;;;;;;4923899;28;20687;-79
2023/10/14 13:41:02;;;;;;;13.65;6.22;;;22.00;91.70;;;;;;4951250;28;20046;-81
2023/10/14 13:43:41;;;;;;;11.38;5.93;;;22.00;91.90;;;;;;4939657;28;20050;-80
2023/10/14 13:46:22;;;;;;;11.88;6.32;;;22.00;91.50;;;;;;4938860;28;20061;-80
2023/10/14 13:49:04;;;;;;;11.75;6.78;;;22.00;91.50;;;;;;4933517;28;20058;-81
2023/10/14 13:51:43;;;;;;;12.77;6.82;;;21.90;91.50;;;;;;4927991;28;20723;-81
2023/10/14 13:54:26;;;;;;;11.20;5.40;;;21.90;91.30;;;;;;4966306;28;20054;-80
2023/10/14 13:57:11;;;;;;;10.50;5.40;;;21.90;91.80;;;;;;4929330;28;20415;-81
2023/10/14 13:59:53;;;;;;;10.55;5.63;;;21.70;92.00;;;;;;4942166;28;20050;-80